sensor_id;sensor_type;location;lat;lon;timestamp;temperature;humidity
67752;DHT22;54551;51.068;5.826;2022-09-09T06:06:37;16.00;99.90
67752;DHT22;54551;51.068;5.826;2022-09-09T06:31:38;16.70;99.90
67752;DHT22;54551;51.068;5.826;2022-09-09T06:34:15;16.80;99.90
67752;DHT22;54551;51.068;5.826;2022-09-09T06:37:01;16.90;99.90
67752;DHT22;54551;51.068;5.826;2022-09-09T06:39:41;16.90;99.90
67752;DHT22;54551;51.068;5.826;2022-09-09T06:42:22;17.00;99.90
67752;DHT22;54551;51.068;5.826;2022-09-09T06:44:49;17.00;99.90
67752;DHT22;54551;51.068;5.826;2022-09-09T06:47:28;17.00;99.90
67752;DHT22;54551;51.068;5.826;2022-09-09T06:50:02;17.10;99.90
67752;DHT22;54551;51.068;5.826;2022-09-09T06:52:36;17.10;99.90
67752;DHT22;54551;51.068;5.826;2022-09-09T06:55:26;17.10;99.90
67752;DHT22;54551;51.068;5.826;2022-09-09T06:57:57;17.10;99.90
67752;DHT22;54551;51.068;5.826;2022-09-09T07:00:39;17.10;99.90
67752;DHT22;54551;51.068;5.826;2022-09-09T07:03:10;17.20;99.90
67752;DHT22;54551;51.068;5.826;2022-09-09T07:05:37;17.20;99.90
67752;DHT22;54551;51.068;5.826;2022-09-09T07:08:09;17.20;99.90
67752;DHT22;54551;51.068;5.826;2022-09-09T07:10:36;17.20;99.90
67752;DHT22;54551;51.068;5.826;2022-09-09T07:13:13;17.20;99.90
67752;DHT22;54551;51.068;5.826;2022-09-09T07:15:43;17.20;99.90
67752;DHT22;54551;51.068;5.826;2022-09-09T07:18:20;17.20;99.90
67752;DHT22;54551;51.068;5.826;2022-09-09T07:21:07;17.30;99.90
67752;DHT22;54551;51.068;5.826;2022-09-09T07:23:46;17.50;99.90
67752;DHT22;54551;51.068;5.826;2022-09-09T07:26:21;17.60;99.90
67752;DHT22;54551;51.068;5.826;2022-09-09T07:28:50;17.70;99.90
67752;DHT22;54551;51.068;5.826;2022-09-09T07:31:38;17.70;99.90
67752;DHT22;54551;51.068;5.826;2022-09-09T07:34:08;17.80;99.90
67752;DHT22;54551;51.068;5.826;2022-09-09T07:36:36;17.90;99.90
67752;DHT22;54551;51.068;5.826;2022-09-09T07:39:20;18.00;99.90
67752;DHT22;54551;51.068;5.826;2022-09-09T07:41:56;18.00;99.90
67752;DHT22;54551;51.068;5.826;2022-09-09T07:44:50;18.10;99.90
67752;DHT22;54551;51.068;5.826;2022-09-09T07:47:21;18.20;99.90
67752;DHT22;54551;51.068;5.826;2022-09-09T07:49:50;18.20;99.90
67752;DHT22;54551;51.068;5.826;2022-09-09T07:52:40;18.20;99.90
67752;DHT22;54551;51.068;5.826;2022-09-09T07:55:31;18.20;99.90
67752;DHT22;54551;51.068;5.826;2022-09-09T07:58:28;18.20;99.90
67752;DHT22;54551;51.068;5.826;2022-09-09T08:05:50;18.10;99.90
67752;DHT22;54551;51.068;5.826;2022-09-09T08:08:39;18.10;99.90
67752;DHT22;54551;51.068;5.826;2022-09-09T08:14:40;18.10;99.90
67752;DHT22;54551;51.068;5.826;2022-09-09T08:17:09;18.10;99.90
67752;DHT22;54551;51.068;5.826;2022-09-09T08:19:38;18.10;99.90
67752;DHT22;54551;51.068;5.826;2022-09-09T08:22:15;18.10;99.90
67752;DHT22;54551;51.068;5.826;2022-09-09T08:24:41;18.20;99.90
67752;DHT22;54551;51.068;5.826;2022-09-09T08:27:08;18.30;99.90
67752;DHT22;54551;51.068;5.826;2022-09-09T08:29:36;18.40;99.90
67752;DHT22;54551;51.068;5.826;2022-09-09T08:32:10;18.50;99.90
67752;DHT22;54551;51.068;5.826;2022-09-09T08:34:38;18.60;99.90
67752;DHT22;54551;51.068;5.826;2022-09-09T08:37:34;18.80;99.90
67752;DHT22;54551;51.068;5.826;2022-09-09T08:40:22;19.00;99.90
67752;DHT22;54551;51.068;5.826;2022-09-09T08:42:59;19.20;99.90
67752;DHT22;54551;51.068;5.826;2022-09-09T08:46:09;19.40;99.90
67752;DHT22;54551;51.068;5.826;2022-09-09T08:48:58;19.70;99.90
67752;DHT22;54551;51.068;5.826;2022-09-09T08:51:28;19.70;99.90
67752;DHT22;54551;51.068;5.826;2022-09-09T08:54:09;19.70;99.90
67752;DHT22;54551;51.068;5.826;2022-09-09T08:56:38;19.70;99.90
67752;DHT22;54551;51.068;5.826;2022-09-09T08:59:14;19.80;99.90
67752;DHT22;54551;51.068;5.826;2022-09-09T09:05:20;19.70;99.90
67752;DHT22;54551;51.068;5.826;2022-09-09T09:08:17;19.60;99.90
67752;DHT22;54551;51.068;5.826;2022-09-09T09:11:23;19.50;99.90
67752;DHT22;54551;51.068;5.826;2022-09-09T09:17:24;19.20;99.90
67752;DHT22;54551;51.068;5.826;2022-09-09T09:21:13;19.10;99.90
67752;DHT22;54551;51.068;5.826;2022-09-09T09:27:33;18.90;99.90
67752;DHT22;54551;51.068;5.826;2022-09-09T09:30:34;19.20;99.90
67752;DHT22;54551;51.068;5.826;2022-09-09T09:33:49;19.50;99.90
67752;DHT22;54551;51.068;5.826;2022-09-09T09:36:34;19.70;99.90
67752;DHT22;54551;51.068;5.826;2022-09-09T09:39:48;19.70;99.90
67752;DHT22;54551;51.068;5.826;2022-09-09T09:45:50;19.70;99.90
67752;DHT22;54551;51.068;5.826;2022-09-09T09:48:17;19.60;99.90
67752;DHT22;54551;51.068;5.826;2022-09-09T09:50:54;19.60;99.90
67752;DHT22;54551;51.068;5.826;2022-09-09T09:53:37;19.60;99.90
67752;DHT22;54551;51.068;5.826;2022-09-09T09:57:08;19.60;99.90
67752;DHT22;54551;51.068;5.826;2022-09-09T09:59:35;19.70;99.90
67752;DHT22;54551;51.068;5.826;2022-09-09T10:02:24;19.40;99.90
67752;DHT22;54551;51.068;5.826;2022-09-09T10:05:14;19.30;99.90
67752;DHT22;54551;51.068;5.826;2022-09-09T10:14:44;19.30;99.90
67752;DHT22;54551;51.068;5.826;2022-09-09T10:36:27;19.60;99.90
67752;DHT22;54551;51.068;5.826;2022-09-09T10:39:36;19.50;99.90
67752;DHT22;54551;51.068;5.826;2022-09-09T10:42:41;19.50;99.90
67752;DHT22;54551;51.068;5.826;2022-09-09T10:59:46;19.40;99.90
67752;DHT22;54551;51.068;5.826;2022-09-09T11:03:38;19.30;99.90
67752;DHT22;54551;51.068;5.826;2022-09-09T11:06:55;19.40;99.90
67752;DHT22;54551;51.068;5.826;2022-09-09T11:14:11;19.10;99.90
67752;DHT22;54551;51.068;5.826;2022-09-09T11:28:59;18.20;99.90
67752;DHT22;54551;51.068;5.826;2022-09-09T12:13:39;19.40;99.90
67752;DHT22;54551;51.068;5.826;2022-09-09T12:20:36;19.50;99.90
67752;DHT22;54551;51.068;5.826;2022-09-09T12:40:06;19.80;99.90
67752;DHT22;54551;51.068;5.826;2022-09-09T12:43:20;19.90;99.90
67752;DHT22;54551;51.068;5.826;2022-09-09T12:46:44;19.90;99.90
67752;DHT22;54551;51.068;5.826;2022-09-09T12:50:43;19.90;99.90
67752;DHT22;54551;51.068;5.826;2022-09-09T12:53:52;19.80;99.90
67752;DHT22;54551;51.068;5.826;2022-09-09T12:56:48;19.70;99.90
67752;DHT22;54551;51.068;5.826;2022-09-09T12:59:37;19.50;99.90
67752;DHT22;54551;51.068;5.826;2022-09-09T13:02:48;19.30;99.90
67752;DHT22;54551;51.068;5.826;2022-09-09T13:05:35;18.80;99.90
67752;DHT22;54551;51.068;5.826;2022-09-09T13:08:09;18.40;99.90
67752;DHT22;54551;51.068;5.826;2022-09-09T13:11:41;18.00;99.90
67752;DHT22;54551;51.068;5.826;2022-09-09T13:14:19;17.70;99.90
67752;DHT22;54551;51.068;5.826;2022-09-09T13:24:33;17.00;99.90
67752;DHT22;54551;51.068;5.826;2022-09-09T13:31:19;16.70;99.90
67752;DHT22;54551;51.068;5.826;2022-09-09T13:37:55;16.50;99.90
67752;DHT22;54551;51.068;5.826;2022-09-09T13:41:05;16.50;99.90
67752;DHT22;54551;51.068;5.826;2022-09-09T13:43:45;16.60;99.90
67752;DHT22;54551;51.068;5.826;2022-09-09T13:46:44;16.70;99.90
67752;DHT22;54551;51.068;5.826;2022-09-09T13:49:55;16.80;99.90
67752;DHT22;54551;51.068;5.826;2022-09-09T14:10:33;18.30;99.90
67752;DHT22;54551;51.068;5.826;2022-09-09T14:26:45;20.00;99.90
67752;DHT22;54551;51.068;5.826;2022-09-09T14:30:22;20.40;99.90
67752;DHT22;54551;51.068;5.826;2022-09-09T14:33:21;20.70;99.90
67752;DHT22;54551;51.068;5.826;2022-09-09T14:37:03;20.90;99.90
67752;DHT22;54551;51.068;5.826;2022-09-09T14:39:50;21.00;99.90
67752;DHT22;54551;51.068;5.826;2022-09-09T14:51:19;20.70;99.90
67752;DHT22;54551;51.068;5.826;2022-09-09T14:54:32;20.70;99.90
67752;DHT22;54551;51.068;5.826;2022-09-09T14:58:05;20.70;99.90
67752;DHT22;54551;51.068;5.826;2022-09-09T15:04:41;20.70;99.90
67752;DHT22;54551;51.068;5.826;2022-09-09T15:11:25;20.50;99.90
67752;DHT22;54551;51.068;5.826;2022-09-09T15:14:56;20.30;99.90
67752;DHT22;54551;51.068;5.826;2022-09-09T15:27:34;20.10;99.90
67752;DHT22;54551;51.068;5.826;2022-09-09T15:34:34;20.30;99.90
67752;DHT22;54551;51.068;5.826;2022-09-09T15:37:43;20.20;99.90
67752;DHT22;54551;51.068;5.826;2022-09-09T15:40:32;20.20;99.90
67752;DHT22;54551;51.068;5.826;2022-09-09T15:51:52;20.10;99.90
67752;DHT22;54551;51.068;5.826;2022-09-09T15:54:40;20.10;99.90
67752;DHT22;54551;51.068;5.826;2022-09-09T16:09:11;20.30;99.90
67752;DHT22;54551;51.068;5.826;2022-09-09T16:20:04;19.80;99.90
67752;DHT22;54551;51.068;5.826;2022-09-09T16:22:51;19.70;99.90
67752;DHT22;54551;51.068;5.826;2022-09-09T16:29:32;19.70;99.90
67752;DHT22;54551;51.068;5.826;2022-09-09T16:33:05;19.70;99.90
67752;DHT22;54551;51.068;5.826;2022-09-09T16:36:26;19.70;99.90
67752;DHT22;54551;51.068;5.826;2022-09-09T16:39:19;19.80;99.90
67752;DHT22;54551;51.068;5.826;2022-09-09T16:42:05;19.90;99.90
67752;DHT22;54551;51.068;5.826;2022-09-09T16:44:42;19.90;99.90
67752;DHT22;54551;51.068;5.826;2022-09-09T16:47:51;19.90;99.90
67752;DHT22;54551;51.068;5.826;2022-09-09T16:50:40;19.80;99.90
67752;DHT22;54551;51.068;5.826;2022-09-09T16:53:21;19.70;99.90
67752;DHT22;54551;51.068;5.826;2022-09-09T16:55:47;19.70;99.90
67752;DHT22;54551;51.068;5.826;2022-09-09T16:59:02;19.60;99.90
67752;DHT22;54551;51.068;5.826;2022-09-09T17:04:52;19.40;99.90
67752;DHT22;54551;51.068;5.826;2022-09-09T17:08:05;19.30;99.90
67752;DHT22;54551;51.068;5.826;2022-09-09T17:11:01;19.20;99.90
67752;DHT22;54551;51.068;5.826;2022-09-09T17:17:32;19.00;99.90
67752;DHT22;54551;51.068;5.826;2022-09-09T17:21:01;18.90;99.90
67752;DHT22;54551;51.068;5.826;2022-09-09T17:27:49;18.80;99.90
67752;DHT22;54551;51.068;5.826;2022-09-09T17:30:20;18.70;99.90
67752;DHT22;54551;51.068;5.826;2022-09-09T17:36:39;18.60;99.90
67752;DHT22;54551;51.068;5.826;2022-09-09T17:40:18;18.60;99.90
67752;DHT22;54551;51.068;5.826;2022-09-09T17:42:46;18.60;99.90
67752;DHT22;54551;51.068;5.826;2022-09-09T17:45:55;18.60;99.90
67752;DHT22;54551;51.068;5.826;2022-09-09T17:48:31;18.60;99.90
67752;DHT22;54551;51.068;5.826;2022-09-09T17:51:13;18.60;99.90
67752;DHT22;54551;51.068;5.826;2022-09-09T17:53:43;18.60;99.90
67752;DHT22;54551;51.068;5.826;2022-09-09T17:56:30;18.60;99.90
67752;DHT22;54551;51.068;5.826;2022-09-09T17:58:58;18.60;99.90
67752;DHT22;54551;51.068;5.826;2022-09-09T18:02:02;18.50;99.90
67752;DHT22;54551;51.068;5.826;2022-09-09T18:04:33;18.50;99.90
67752;DHT22;54551;51.068;5.826;2022-09-09T18:10:57;18.50;99.90
67752;DHT22;54551;51.068;5.826;2022-09-09T18:13:42;18.40;99.90
67752;DHT22;54551;51.068;5.826;2022-09-09T18:16:11;18.40;99.90
67752;DHT22;54551;51.068;5.826;2022-09-09T18:18:38;18.40;99.90
67752;DHT22;54551;51.068;5.826;2022-09-09T18:21:23;18.30;99.90
67752;DHT22;54551;51.068;5.826;2022-09-09T18:23:54;18.30;99.90
67752;DHT22;54551;51.068;5.826;2022-09-09T18:26:24;18.20;99.90
67752;DHT22;54551;51.068;5.826;2022-09-09T18:28:56;18.00;99.90
67752;DHT22;54551;51.068;5.826;2022-09-09T18:36:27;17.80;99.90
67752;DHT22;54551;51.068;5.826;2022-09-09T18:59:22;16.30;99.90
67752;DHT22;54551;51.068;5.826;2022-09-09T19:51:58;16.30;99.90
67752;DHT22;54551;51.068;5.826;2022-09-09T19:55:19;16.40;99.90
67752;DHT22;54551;51.068;5.826;2022-09-09T19:58:37;16.30;99.90
67752;DHT22;54551;51.068;5.826;2022-09-09T20:01:40;16.30;99.90
67752;DHT22;54551;51.068;5.826;2022-09-09T20:08:36;16.30;99.90
67752;DHT22;54551;51.068;5.826;2022-09-09T20:16:35;16.30;99.90
67752;DHT22;54551;51.068;5.826;2022-09-09T20:19:36;16.20;99.90
67752;DHT22;54551;51.068;5.826;2022-09-09T20:23:09;16.20;99.90
67752;DHT22;54551;51.068;5.826;2022-09-09T20:27:22;16.20;99.90
67752;DHT22;54551;51.068;5.826;2022-09-09T20:30:29;16.20;99.90
67752;DHT22;54551;51.068;5.826;2022-09-09T20:34:11;16.20;99.90
67752;DHT22;54551;51.068;5.826;2022-09-09T20:41:21;16.30;99.90
67752;DHT22;54551;51.068;5.826;2022-09-09T20:44:31;16.30;99.90
67752;DHT22;54551;51.068;5.826;2022-09-09T21:14:46;16.30;99.90
67752;DHT22;54551;51.068;5.826;2022-09-09T21:18:02;16.30;99.90
67752;DHT22;54551;51.068;5.826;2022-09-09T21:25:02;16.30;99.90
67752;DHT22;54551;51.068;5.826;2022-09-09T21:27:48;16.30;99.90
67752;DHT22;54551;51.068;5.826;2022-09-09T21:34:47;16.10;99.90
67752;DHT22;54551;51.068;5.826;2022-09-09T21:37:27;16.00;99.90
67752;DHT22;54551;51.068;5.826;2022-09-09T21:42:36;16.00;99.90
67752;DHT22;54551;51.068;5.826;2022-09-09T21:48:30;15.90;99.90
67752;DHT22;54551;51.068;5.826;2022-09-09T21:56:04;15.80;99.90
67752;DHT22;54551;51.068;5.826;2022-09-09T21:58:44;15.70;99.90
67752;DHT22;54551;51.068;5.826;2022-09-09T22:01:23;15.70;99.90
67752;DHT22;54551;51.068;5.826;2022-09-09T22:04:11;15.60;99.90
67752;DHT22;54551;51.068;5.826;2022-09-09T22:07:44;15.70;99.90
67752;DHT22;54551;51.068;5.826;2022-09-09T22:13:49;15.60;99.90
67752;DHT22;54551;51.068;5.826;2022-09-09T22:19:46;15.60;99.90
67752;DHT22;54551;51.068;5.826;2022-09-09T22:22:35;15.70;99.90
67752;DHT22;54551;51.068;5.826;2022-09-09T22:25:23;15.70;99.90
67752;DHT22;54551;51.068;5.826;2022-09-09T22:28:50;15.70;99.90
67752;DHT22;54551;51.068;5.826;2022-09-09T22:34:45;15.70;99.90
67752;DHT22;54551;51.068;5.826;2022-09-09T22:41:06;15.80;99.90
67752;DHT22;54551;51.068;5.826;2022-09-09T22:44:27;15.70;99.90
67752;DHT22;54551;51.068;5.826;2022-09-09T22:48:02;15.80;99.90
67752;DHT22;54551;51.068;5.826;2022-09-09T22:54:47;15.70;99.90
67752;DHT22;54551;51.068;5.826;2022-09-09T22:57:12;15.70;99.90
67752;DHT22;54551;51.068;5.826;2022-09-09T23:00:20;15.60;99.90
67752;DHT22;54551;51.068;5.826;2022-09-09T23:03:18;15.70;99.90
67752;DHT22;54551;51.068;5.826;2022-09-09T23:06:36;15.70;99.90
67752;DHT22;54551;51.068;5.826;2022-09-09T23:13:56;15.70;99.90
67752;DHT22;54551;51.068;5.826;2022-09-09T23:17:12;15.80;99.90
67752;DHT22;54551;51.068;5.826;2022-09-09T23:19:47;15.80;99.90
67752;DHT22;54551;51.068;5.826;2022-09-09T23:22:40;15.80;99.90
67752;DHT22;54551;51.068;5.826;2022-09-09T23:25:09;15.80;99.90
67752;DHT22;54551;51.068;5.826;2022-09-09T23:28:16;15.80;99.90
67752;DHT22;54551;51.068;5.826;2022-09-09T23:41:31;15.80;99.90
67752;DHT22;54551;51.068;5.826;2022-09-09T23:45:21;15.80;99.90
67752;DHT22;54551;51.068;5.826;2022-09-09T23:48:46;15.80;99.90
67752;DHT22;54551;51.068;5.826;2022-09-09T23:51:40;15.80;99.90
67752;DHT22;54551;51.068;5.826;2022-09-09T23:54:55;15.90;99.90
